Time;durP1;ratioP1;P1;durP2;ratioP2;P2;SDS_P1;SDS_P2;PMS_P1;PMS_P2;Temp;Humidity;BMP_temperature;BMP_pressure;BME280_temperature;BME280_humidity;BME280_pressure;Samples;Min_cycle;Max_cycle;Signal;HPM_P1;HPM_P2
2022/03/14 00:00:48;;;;;;;10.30;6.38;;;-0.70;99.70;;;;;;5086990;28;20229;-70
2022/03/14 00:03:15;;;;;;;10.27;5.45;;;-0.80;99.90;;;;;;5097385;28;20609;-70
2022/03/14 00:05:42;;;;;;;8.98;5.30;;;-0.90;99.90;;;;;;5102593;28;20199;-72
2022/03/14 00:08:09;;;;;;;10.45;5.63;;;-0.90;99.90;;;;;;5091321;28;20254;-72
2022/03/14 00:10:34;;;;;;;9.18;5.40;;;-0.90;99.90;;;;;;5102350;28;20164;-72
2022/03/14 00:13:01;;;;;;;13.10;5.93;;;-1.10;99.90;;;;;;5084296;28;20253;-72
2022/03/14 00:15:33;;;;;;;22.38;6.60;;;-1.30;99.90;;;;;;5101464;28;20231;-72
2022/03/14 00:18:03;;;;;;;16.15;7.18;;;-1.30;99.90;;;;;;5089947;28;20225;-72
2022/03/14 00:20:29;;;;;;;12.80;7.20;;;-1.00;99.90;;;;;;5101686;28;20167;-73
2022/03/14 00:22:58;;;;;;;14.55;6.22;;;-0.80;99.90;;;;;;5094952;28;20198;-72
2022/03/14 00:25:24;;;;;;;12.70;6.90;;;-0.80;99.90;;;;;;5094217;28;20172;-72
2022/03/14 00:27:50;;;;;;;16.45;6.38;;;-0.90;99.90;;;;;;5097521;28;20191;-72
2022/03/14 00:30:15;;;;;;;11.90;5.50;;;-1.00;99.90;;;;;;5091443;28;20191;-72
2022/03/14 00:32:42;;;;;;;12.55;7.10;;;-0.90;99.90;;;;;;5100580;28;20168;-72
2022/03/14 00:35:09;;;;;;;11.95;5.90;;;-0.90;99.90;;;;;;5084373;28;20196;-72
2022/03/14 00:37:38;;;;;;;9.30;6.28;;;-0.80;99.90;;;;;;5097419;28;20199;-72
2022/03/14 00:40:07;;;;;;;14.38;6.82;;;-0.90;99.90;;;;;;5090059;28;20164;-72
2022/03/14 00:42:35;;;;;;;10.02;5.40;;;-0.90;99.90;;;;;;5103377;28;20644;-72
2022/03/14 00:45:01;;;;;;;9.45;5.68;;;-0.90;99.90;;;;;;5092370;28;20705;-73
2022/03/14 00:47:28;;;;;;;11.80;5.22;;;-1.10;99.90;;;;;;5094547;28;20172;-72
2022/03/14 00:49:53;;;;;;;11.23;5.50;;;-1.10;99.90;;;;;;5097985;28;20191;-73
2022/03/14 00:52:19;;;;;;;7.75;5.47;;;-1.10;99.90;;;;;;5093596;28;20179;-72
2022/03/14 00:54:45;;;;;;;12.88;5.63;;;-1.10;99.90;;;;;;5099820;28;20203;-72
2022/03/14 00:57:14;;;;;;;8.40;5.13;;;-1.10;99.90;;;;;;5097517;28;20209;-72
2022/03/14 00:59:40;;;;;;;14.82;5.80;;;-1.10;99.90;;;;;;5092862;28;20190;-72
2022/03/14 01:02:08;;;;;;;8.88;4.97;;;-1.20;99.90;;;;;;5091124;28;20186;-72
2022/03/14 01:04:35;;;;;;;8.88;5.20;;;-1.20;99.90;;;;;;5102403;28;20178;-72
2022/03/14 01:07:02;;;;;;;11.73;4.70;;;-1.20;99.90;;;;;;5100499;28;20238;-72
2022/03/14 01:09:31;;;;;;;10.43;5.30;;;-1.10;99.90;;;;;;5090815;28;20267;-72
2022/03/14 01:11:58;;;;;;;6.85;5.20;;;-1.30;99.90;;;;;;5089410;28;20191;-72
2022/03/14 01:14:25;;;;;;;10.90;5.90;;;-1.30;99.90;;;;;;5093763;28;20201;-72
2022/03/14 01:16:52;;;;;;;8.48;4.97;;;-1.20;99.90;;;;;;5102438;28;20192;-72
2022/03/14 01:19:19;;;;;;;10.88;5.70;;;-1.10;99.90;;;;;;5102980;28;20167;-72
2022/03/14 01:21:46;;;;;;;8.18;5.03;;;-1.10;99.90;;;;;;5094291;28;20168;-73
2022/03/14 01:24:12;;;;;;;11.55;5.55;;;-1.10;99.90;;;;;;5107768;28;20231;-72
2022/03/14 01:26:38;;;;;;;8.18;5.50;;;-1.10;99.90;;;;;;5095917;28;20278;-72
2022/03/14 01:29:05;;;;;;;11.35;5.10;;;-1.00;99.90;;;;;;5100846;28;20198;-72
2022/03/14 01:31:31;;;;;;;10.77;6.22;;;-1.00;99.90;;;;;;5096207;28;20210;-72
2022/03/14 01:33:57;;;;;;;9.05;5.45;;;-1.10;99.90;;;;;;5107682;28;20175;-73
2022/03/14 01:36:23;;;;;;;10.00;4.65;;;-1.20;99.90;;;;;;5093251;28;20277;-73
2022/03/14 01:38:49;;;;;;;11.15;5.43;;;-1.20;99.90;;;;;;5089155;28;20263;-73
2022/03/14 01:41:17;;;;;;;8.82;4.63;;;-1.40;99.90;;;;;;5102407;28;20194;-72
2022/03/14 01:43:44;;;;;;;9.77;5.95;;;-1.40;99.90;;;;;;5094161;28;20168;-73
2022/03/14 01:46:13;;;;;;;10.82;5.28;;;-1.40;99.90;;;;;;5107424;28;20171;-74
2022/03/14 01:48:39;;;;;;;9.45;4.50;;;-1.40;99.90;;;;;;5095377;28;20224;-73
2022/03/14 01:51:04;;;;;;;10.77;5.18;;;-1.60;99.90;;;;;;5093826;28;20227;-73
2022/03/14 01:53:32;;;;;;;10.07;5.75;;;-1.60;99.90;;;;;;5087313;28;20199;-73
2022/03/14 01:55:58;;;;;;;14.10;5.88;;;-1.60;99.90;;;;;;5091183;28;20192;-73
2022/03/14 01:58:24;;;;;;;15.70;6.03;;;-1.50;99.90;;;;;;5105107;28;20179;-73
2022/03/14 02:00:51;;;;;;;8.93;4.90;;;-1.40;99.90;;;;;;5098568;28;20197;-73
2022/03/14 02:03:17;;;;;;;9.90;5.55;;;-1.40;99.90;;;;;;5098634;28;20304;-73
2022/03/14 02:05:47;;;;;;;12.30;5.68;;;-1.40;99.90;;;;;;5105680;28;20189;-72
2022/03/14 02:08:13;;;;;;;8.23;5.30;;;-1.30;99.90;;;;;;5091215;28;20187;-72
2022/03/14 02:10:39;;;;;;;10.50;5.15;;;-1.30;99.90;;;;;;5103234;28;20172;-72
2022/03/14 02:13:06;;;;;;;13.15;5.75;;;-1.40;99.90;;;;;;5093802;28;20199;-73
2022/03/14 02:15:33;;;;;;;14.73;5.00;;;-1.30;99.90;;;;;;5091766;28;20192;-73
2022/03/14 02:18:00;;;;;;;10.88;5.03;;;-1.40;99.90;;;;;;5106529;28;20170;-72
2022/03/14 02:20:26;;;;;;;10.68;4.03;;;-1.50;99.90;;;;;;5094166;28;20213;-73
2022/03/14 02:22:52;;;;;;;11.32;5.45;;;-1.60;99.90;;;;;;5101792;28;20160;-73
2022/03/14 02:25:18;;;;;;;8.88;5.22;;;-1.50;99.90;;;;;;5093908;28;20203;-72
2022/03/14 02:27:44;;;;;;;9.13;5.43;;;-1.50;99.90;;;;;;5086812;28;20198;-73
2022/03/14 02:30:10;;;;;;;8.77;4.32;;;-1.50;99.90;;;;;;5104442;28;20191;-73
2022/03/14 02:32:41;;;;;;;8.60;5.20;;;-1.60;99.90;;;;;;5096050;28;20175;-73
2022/03/14 02:35:08;;;;;;;8.90;5.00;;;-1.60;99.90;;;;;;5098036;28;20232;-72
2022/03/14 02:37:35;;;;;;;9.85;4.25;;;-1.50;99.90;;;;;;5102157;28;20203;-73
2022/03/14 02:40:01;;;;;;;15.10;4.70;;;-1.60;99.90;;;;;;5092470;28;20240;-73
2022/03/14 02:42:27;;;;;;;9.20;4.70;;;-1.70;99.90;;;;;;5104846;28;20168;-73
2022/03/14 02:44:53;;;;;;;7.43;3.90;;;-1.80;99.90;;;;;;5087561;28;20829;-73
2022/03/14 02:47:19;;;;;;;15.20;4.85;;;-1.80;99.90;;;;;;5086336;28;20242;-73
2022/03/14 02:49:45;;;;;;;12.68;4.90;;;-1.70;99.90;;;;;;5104041;28;20182;-73
2022/03/14 02:52:11;;;;;;;8.90;5.32;;;-1.60;99.90;;;;;;5086921;28;20218;-73
2022/03/14 02:54:37;;;;;;;11.93;5.03;;;-1.60;99.90;;;;;;5103071;28;20252;-73
2022/03/14 02:57:05;;;;;;;8.48;5.38;;;-1.70;99.90;;;;;;5092144;28;20215;-73
2022/03/14 02:59:32;;;;;;;10.00;4.53;;;-1.70;99.90;;;;;;5104170;28;20168;-73
2022/03/14 03:01:58;;;;;;;7.43;4.93;;;-1.70;99.90;;;;;;5091007;28;20229;-71
2022/03/14 03:04:24;;;;;;;11.93;4.32;;;-1.70;99.90;;;;;;5085356;28;20279;-72
2022/03/14 03:06:50;;;;;;;10.55;4.80;;;-1.70;99.90;;;;;;5084846;28;20227;-72
2022/03/14 03:09:16;;;;;;;7.20;4.00;;;-1.60;99.90;;;;;;5105182;28;20168;-72
2022/03/14 03:11:42;;;;;;;13.00;4.57;;;-1.70;99.90;;;;;;5095982;28;20598;-72
2022/03/14 03:14:09;;;;;;;6.18;4.20;;;-1.70;99.90;;;;;;5101214;28;20199;-72
2022/03/14 03:16:35;;;;;;;11.85;5.95;;;-1.80;99.90;;;;;;5094484;28;20184;-71
2022/03/14 03:19:01;;;;;;;7.88;4.85;;;-1.90;99.90;;;;;;5105395;28;20206;-71
2022/03/14 03:21:27;;;;;;;7.63;4.15;;;-1.90;99.90;;;;;;5093104;28;20537;-74
2022/03/14 03:23:54;;;;;;;9.82;4.85;;;-1.90;99.90;;;;;;5096853;28;20188;-71
2022/03/14 03:26:21;;;;;;;8.88;4.13;;;-1.90;99.90;;;;;;5083105;28;20203;-72
2022/03/14 03:28:47;;;;;;;10.65;4.72;;;-2.00;99.90;;;;;;5104531;28;20194;-71
2022/03/14 03:31:19;;;;;;;9.43;5.55;;;-2.00;99.90;;;;;;5088018;28;20199;-74
2022/03/14 03:33:47;;;;;;;7.60;4.32;;;-1.90;99.90;;;;;;5099373;28;20202;-74
2022/03/14 03:36:14;;;;;;;10.57;4.65;;;-1.90;99.90;;;;;;5081478;28;20204;-74
2022/03/14 03:38:40;;;;;;;9.27;4.65;;;-2.00;99.90;;;;;;5088781;28;20195;-73
2022/03/14 03:41:06;;;;;;;13.27;6.35;;;-1.90;99.90;;;;;;5105211;28;20174;-74
2022/03/14 03:43:32;;;;;;;5.95;4.28;;;-1.90;99.90;;;;;;5092343;28;20179;-72
2022/03/14 03:45:58;;;;;;;8.13;4.32;;;-1.90;99.90;;;;;;5097917;28;20179;-74
2022/03/14 03:48:25;;;;;;;13.43;6.75;;;-2.00;99.90;;;;;;5101345;28;20195;-73
2022/03/14 03:50:50;;;;;;;12.13;5.65;;;-2.10;99.90;;;;;;5091868;28;20187;-73
2022/03/14 03:53:16;;;;;;;14.57;6.63;;;-2.10;99.90;;;;;;5100762;28;20207;-73
2022/03/14 03:55:42;;;;;;;8.35;5.55;;;-2.00;99.90;;;;;;5097994;28;20196;-73
2022/03/14 03:58:08;;;;;;;8.95;4.80;;;-2.00;99.90;;;;;;5089630;28;20170;-73
2022/03/14 04:00:34;;;;;;;7.75;4.13;;;-1.90;99.90;;;;;;5092676;28;20182;-73
2022/03/14 04:03:00;;;;;;;8.18;4.57;;;-2.00;99.90;;;;;;5102085;28;20188;-73
2022/03/14 04:05:27;;;;;;;9.60;4.55;;;-2.00;99.90;;;;;;5084336;28;20263;-73
2022/03/14 04:08:00;;;;;;;7.00;4.38;;;-2.10;99.90;;;;;;5081192;28;20219;-73
2022/03/14 04:10:29;;;;;;;14.27;5.05;;;-2.10;99.90;;;;;;5100940;28;20199;-74
2022/03/14 04:13:03;;;;;;;10.93;4.15;;;-2.20;99.90;;;;;;5090859;28;20171;-74
2022/03/14 04:15:30;;;;;;;20.23;5.05;;;-2.20;99.90;;;;;;5092945;28;20170;-74
2022/03/14 04:18:00;;;;;;;10.93;5.65;;;-2.20;99.90;;;;;;5097734;28;20252;-74
2022/03/14 04:20:26;;;;;;;8.90;4.75;;;-2.20;99.90;;;;;;5100381;28;20160;-74
2022/03/14 04:22:52;;;;;;;7.32;4.93;;;-2.20;99.90;;;;;;5091634;28;20243;-74
2022/03/14 04:25:18;;;;;;;8.45;5.32;;;-2.20;99.90;;;;;;5104289;28;20171;-74
2022/03/14 04:27:44;;;;;;;10.20;5.30;;;-2.20;99.90;;;;;;5093062;28;20191;-73
2022/03/14 04:30:11;;;;;;;7.22;4.25;;;-2.20;99.90;;;;;;5097001;28;20680;-73
2022/03/14 04:32:36;;;;;;;6.93;4.03;;;-2.10;99.90;;;;;;5101675;28;20223;-72
2022/03/14 04:35:03;;;;;;;13.98;5.75;;;-2.20;99.90;;;;;;5090000;28;20175;-73
2022/03/14 04:37:29;;;;;;;9.15;5.00;;;-2.20;99.90;;;;;;5101440;28;20215;-73
2022/03/14 04:39:55;;;;;;;6.75;4.72;;;-2.20;99.90;;;;;;5097085;28;20195;-72
2022/03/14 04:42:21;;;;;;;6.88;4.07;;;-2.10;99.90;;;;;;5099056;28;20297;-73
2022/03/14 04:44:49;;;;;;;7.47;4.25;;;-2.20;99.90;;;;;;5108405;28;20163;-73
2022/03/14 04:47:16;;;;;;;7.35;4.35;;;-2.30;99.90;;;;;;5076613;28;20171;-72
2022/03/14 04:49:43;;;;;;;15.10;6.47;;;-2.30;99.90;;;;;;5095973;28;20192;-73
2022/03/14 04:52:09;;;;;;;11.55;5.38;;;-2.30;99.90;;;;;;5093136;28;20191;-72
2022/03/14 04:54:35;;;;;;;9.73;4.70;;;-2.30;99.90;;;;;;5104934;28;20221;-73
2022/03/14 04:57:01;;;;;;;15.20;5.22;;;-2.30;99.90;;;;;;5092818;28;20199;-73
2022/03/14 04:59:27;;;;;;;6.47;3.70;;;-2.40;99.90;;;;;;5106409;28;20228;-73
2022/03/14 05:01:53;;;;;;;9.80;4.90;;;-2.40;99.90;;;;;;5097441;28;20171;-73
2022/03/14 05:04:18;;;;;;;11.43;4.70;;;-2.50;99.90;;;;;;5099264;28;20228;-73
2022/03/14 05:06:45;;;;;;;8.07;4.93;;;-2.40;99.90;;;;;;5104595;28;20283;-73
2022/03/14 05:09:11;;;;;;;9.35;4.57;;;-2.40;99.90;;;;;;5091456;28;20203;-73
2022/03/14 05:11:38;;;;;;;12.32;4.85;;;-2.40;99.90;;;;;;5104861;28;20207;-73
2022/03/14 05:14:10;;;;;;;9.98;5.32;;;-2.40;99.90;;;;;;5099404;28;20259;-73
2022/03/14 05:16:37;;;;;;;8.65;4.57;;;-2.40;99.90;;;;;;5096530;28;20242;-73
2022/03/14 05:19:03;;;;;;;11.55;5.88;;;-2.30;99.90;;;;;;5105594;28;20167;-73
2022/03/14 05:21:29;;;;;;;11.85;5.32;;;-2.20;99.90;;;;;;5095174;28;20241;-73
2022/03/14 05:23:55;;;;;;;6.72;4.30;;;-2.20;99.90;;;;;;5103334;28;20196;-73
2022/03/14 05:26:21;;;;;;;12.10;5.53;;;-2.20;99.90;;;;;;5101005;28;20666;-73
2022/03/14 05:28:47;;;;;;;11.38;5.05;;;-2.20;99.90;;;;;;5092586;28;20222;-73
2022/03/14 05:31:13;;;;;;;14.30;5.13;;;-2.20;99.90;;;;;;5091121;28;20203;-73
2022/03/14 05:33:39;;;;;;;8.20;5.05;;;-2.20;99.90;;;;;;5095580;28;20198;-73
2022/03/14 05:36:05;;;;;;;14.50;5.18;;;-2.20;99.90;;;;;;5100092;28;20216;-73
2022/03/14 05:38:31;;;;;;;12.60;5.30;;;-2.10;99.90;;;;;;5100044;28;20203;-73
2022/03/14 05:40:57;;;;;;;20.83;6.18;;;-2.10;99.90;;;;;;5092450;28;20617;-74
2022/03/14 05:43:27;;;;;;;13.70;7.25;;;-2.10;99.90;;;;;;5107375;28;20191;-74
2022/03/14 05:45:54;;;;;;;10.40;5.72;;;-2.00;99.90;;;;;;5096775;28;20226;-73
2022/03/14 05:48:20;;;;;;;10.23;4.80;;;-2.00;99.90;;;;;;5099287;28;20195;-74
2022/03/14 05:50:46;;;;;;;7.60;4.88;;;-1.90;99.90;;;;;;5093737;28;20203;-72
2022/03/14 05:53:12;;;;;;;7.80;4.55;;;-1.90;99.90;;;;;;5087749;28;20196;-74
2022/03/14 05:55:39;;;;;;;9.20;5.18;;;-1.80;99.90;;;;;;5095740;28;20164;-73
2022/03/14 05:58:06;;;;;;;11.38;5.35;;;-1.80;99.90;;;;;;5099533;28;20170;-72
2022/03/14 06:00:33;;;;;;;15.20;4.72;;;-1.70;99.90;;;;;;5102440;28;20191;-73
2022/03/14 06:02:59;;;;;;;7.25;4.78;;;-1.70;99.90;;;;;;5092692;28;20160;-73
2022/03/14 06:05:25;;;;;;;9.68;4.88;;;-1.60;99.90;;;;;;5077258;28;20159;-73
2022/03/14 06:07:51;;;;;;;9.05;3.95;;;-1.60;99.90;;;;;;5094727;28;20228;-72
2022/03/14 06:10:17;;;;;;;13.15;5.50;;;-1.50;99.90;;;;;;5099319;28;20187;-73
2022/03/14 06:12:44;;;;;;;8.00;4.43;;;-1.40;99.90;;;;;;5093463;28;20171;-74
2022/03/14 06:15:13;;;;;;;9.93;4.43;;;-1.30;99.90;;;;;;5106505;28;20195;-73
2022/03/14 06:17:44;;;;;;;12.30;6.00;;;-1.20;99.90;;;;;;5093419;28;20187;-74
2022/03/14 06:20:11;;;;;;;8.57;5.20;;;-1.00;99.90;;;;;;5098408;28;20225;-74
2022/03/14 06:22:39;;;;;;;13.43;4.40;;;-0.90;99.90;;;;;;5100620;28;20290;-73
2022/03/14 06:25:06;;;;;;;12.15;4.30;;;-0.80;99.90;;;;;;5093061;28;20167;-73
2022/03/14 06:27:32;;;;;;;13.90;5.78;;;-0.70;99.90;;;;;;5104759;28;20164;-73
2022/03/14 06:29:58;;;;;;;12.75;5.35;;;-0.60;99.90;;;;;;5097994;28;20597;-75
2022/03/14 06:32:23;;;;;;;9.38;5.10;;;-0.40;99.90;;;;;;5103948;28;20206;-74
2022/03/14 06:34:49;;;;;;;9.85;6.00;;;-0.30;99.90;;;;;;5093404;28;20187;-73
2022/03/14 06:37:18;;;;;;;7.82;4.63;;;-0.20;99.90;;;;;;5104418;28;20198;-72
2022/03/14 06:39:44;;;;;;;9.02;5.35;;;0.20;99.90;;;;;;5094873;28;20191;-73
2022/03/14 06:42:11;;;;;;;7.53;4.80;;;0.30;99.90;;;;;;5097761;28;20190;-73
2022/03/14 06:44:39;;;;;;;13.35;4.95;;;0.30;99.90;;;;;;5085920;28;20192;-73
2022/03/14 06:47:12;;;;;;;10.05;5.57;;;0.40;99.90;;;;;;5090013;28;20200;-72
2022/03/14 06:49:42;;;;;;;11.90;4.63;;;0.90;99.60;;;;;;5084777;28;21120;-72
2022/03/14 06:52:08;;;;;;;14.50;5.85;;;0.90;99.20;;;;;;5082764;28;20180;-72
2022/03/14 06:54:34;;;;;;;10.40;5.30;;;1.00;99.40;;;;;;5088641;28;20222;-72
2022/03/14 06:57:00;;;;;;;12.35;5.65;;;0.90;99.90;;;;;;5091121;28;20247;-73
2022/03/14 06:59:26;;;;;;;10.75;5.20;;;1.00;99.90;;;;;;5108216;28;20167;-72
2022/03/14 07:01:52;;;;;;;10.60;5.88;;;1.00;99.90;;;;;;5096513;28;20227;-72
2022/03/14 07:04:18;;;;;;;8.45;4.53;;;1.30;99.60;;;;;;5081552;28;20192;-72
2022/03/14 07:06:45;;;;;;;12.73;6.28;;;2.30;98.50;;;;;;5083987;28;20228;-71
2022/03/14 07:09:11;;;;;;;10.60;5.75;;;2.50;97.60;;;;;;5085823;28;20207;-72
2022/03/14 07:11:37;;;;;;;12.60;5.90;;;2.30;98.20;;;;;;5090273;28;20239;-71
2022/03/14 07:14:03;;;;;;;12.60;5.88;;;3.10;97.40;;;;;;5102248;28;20226;-72
2022/03/14 07:16:29;;;;;;;16.08;7.20;;;2.90;97.10;;;;;;5081141;28;20264;-71
2022/03/14 07:18:55;;;;;;;10.73;5.32;;;2.50;97.70;;;;;;5086595;28;20203;-72
2022/03/14 07:21:28;;;;;;;15.63;6.88;;;2.80;97.70;;;;;;5092171;28;20251;-72
2022/03/14 07:23:57;;;;;;;12.25;6.75;;;2.70;97.70;;;;;;5083131;28;20193;-71
2022/03/14 07:26:24;;;;;;;16.85;6.05;;;2.70;98.20;;;;;;5080910;28;20256;-72
2022/03/14 07:28:50;;;;;;;11.93;6.22;;;2.90;98.10;;;;;;5083687;28;20269;-72
2022/03/14 07:31:17;;;;;;;14.73;6.93;;;3.20;97.30;;;;;;5083337;28;20195;-71
2022/03/14 07:33:43;;;;;;;16.60;6.53;;;3.30;97.30;;;;;;5085130;28;20213;-71
2022/03/14 07:36:11;;;;;;;9.93;5.57;;;3.40;96.90;;;;;;5085347;28;20199;-71
2022/03/14 07:38:37;;;;;;;11.45;6.20;;;3.80;97.00;;;;;;5088165;28;20192;-71
2022/03/14 07:41:03;;;;;;;10.00;5.85;;;4.50;96.30;;;;;;5092115;28;20214;-71
2022/03/14 07:43:29;;;;;;;9.20;5.55;;;4.90;95.40;;;;;;5084664;28;20248;-71
2022/03/14 07:45:55;;;;;;;8.07;5.45;;;6.50;93.70;;;;;;5088215;28;20196;-71
2022/03/14 07:48:20;;;;;;;14.15;6.75;;;8.10;92.10;;;;;;5083274;28;20217;-71
2022/03/14 07:50:47;;;;;;;9.38;5.68;;;9.00;90.60;;;;;;5087837;28;20217;-72
2022/03/14 07:53:13;;;;;;;12.68;6.72;;;10.70;86.40;;;;;;5083689;28;20256;-72
2022/03/14 07:55:38;;;;;;;11.93;6.90;;;11.30;85.10;;;;;;5081879;28;20196;-72
2022/03/14 07:58:04;;;;;;;14.45;6.47;;;12.60;82.30;;;;;;5105700;28;20182;-71
2022/03/14 08:00:30;;;;;;;9.48;5.30;;;13.00;80.50;;;;;;5099760;28;20167;-71
2022/03/14 08:02:57;;;;;;;11.35;5.97;;;13.30;81.40;;;;;;5096446;28;20222;-71
2022/03/14 08:05:24;;;;;;;12.35;7.05;;;14.30;77.80;;;;;;5107242;28;20238;-72
2022/03/14 08:07:51;;;;;;;9.15;6.32;;;15.30;75.50;;;;;;5091129;28;20304;-72
2022/03/14 08:10:18;;;;;;;10.05;5.78;;;16.00;74.10;;;;;;5094522;28;20291;-72
2022/03/14 08:12:52;;;;;;;9.75;6.13;;;16.60;73.20;;;;;;5083050;28;20199;-72
2022/03/14 08:15:32;;;;;;;8.82;6.13;;;16.30;72.40;;;;;;5081719;28;20222;-72
2022/03/14 08:18:04;;;;;;;10.82;6.28;;;16.20;73.30;;;;;;5088568;28;20684;-72
2022/03/14 08:20:30;;;;;;;9.60;6.38;;;15.70;74.50;;;;;;5089547;28;20203;-72
2022/03/14 08:22:58;;;;;;;14.35;6.20;;;15.70;74.10;;;;;;5083180;28;20199;-72
2022/03/14 08:25:25;;;;;;;10.82;6.13;;;15.30;75.00;;;;;;5090061;28;20219;-71
2022/03/14 08:27:52;;;;;;;14.73;6.90;;;14.90;76.70;;;;;;5092615;28;20243;-73
2022/03/14 08:30:22;;;;;;;9.07;6.18;;;15.30;74.70;;;;;;5092411;28;20152;-72
2022/03/14 08:32:54;;;;;;;10.48;6.40;;;16.20;73.00;;;;;;5092270;28;20152;-73
2022/03/14 08:35:20;;;;;;;12.70;6.90;;;16.70;74.40;;;;;;5092077;28;20148;-73
2022/03/14 08:37:50;;;;;;;8.85;6.47;;;16.70;72.80;;;;;;5092479;28;20195;-73
2022/03/14 08:40:20;;;;;;;11.52;6.82;;;16.70;74.30;;;;;;5091081;28;20160;-72
2022/03/14 08:42:47;;;;;;;10.27;6.63;;;16.30;72.90;;;;;;5089461;28;20215;-72
2022/03/14 08:45:14;;;;;;;11.32;6.72;;;16.00;73.90;;;;;;5091865;28;20218;-72
2022/03/14 08:47:40;;;;;;;8.88;6.40;;;16.00;73.70;;;;;;5086867;28;20281;-73
2022/03/14 08:50:08;;;;;;;9.18;6.22;;;15.80;74.00;;;;;;5092012;28;20191;-73
2022/03/14 08:52:35;;;;;;;19.33;6.88;;;15.80;74.80;;;;;;5089419;28;20196;-73
2022/03/14 08:55:02;;;;;;;11.15;6.85;;;15.30;73.70;;;;;;5093513;28;20211;-72
2022/03/14 08:57:28;;;;;;;8.73;6.57;;;15.70;73.30;;;;;;5075774;28;20743;-73
2022/03/14 08:59:54;;;;;;;10.82;6.15;;;15.00;75.00;;;;;;5088906;28;20192;-72
2022/03/14 09:02:20;;;;;;;8.63;6.28;;;15.10;75.30;;;;;;5086771;28;20206;-72
2022/03/14 09:04:47;;;;;;;9.98;6.03;;;15.70;72.80;;;;;;5095430;28;20195;-72
2022/03/14 09:07:30;;;;;;;12.20;6.22;;;15.30;73.30;;;;;;5096116;28;20237;-72
2022/03/14 09:10:07;;;;;;;12.48;7.80;;;16.10;73.20;;;;;;5107478;28;20201;-72
2022/03/14 09:12:33;;;;;;;11.15;6.82;;;15.30;73.00;;;;;;5110098;28;20158;-71
2022/03/14 09:15:00;;;;;;;11.95;6.50;;;15.90;73.40;;;;;;5111084;28;20159;-72
2022/03/14 09:17:26;;;;;;;9.65;5.97;;;17.10;71.80;;;;;;5090491;28;20229;-71
2022/03/14 09:19:52;;;;;;;9.77;7.00;;;16.90;69.80;;;;;;5089230;28;20196;-72
2022/03/14 09:22:18;;;;;;;12.88;7.10;;;16.20;73.20;;;;;;5091669;28;20221;-71
2022/03/14 09:24:47;;;;;;;14.07;7.50;;;16.30;73.50;;;;;;5093619;28;20661;-71
2022/03/14 09:27:14;;;;;;;12.35;7.25;;;16.50;72.30;;;;;;5102559;28;20220;-72
2022/03/14 09:29:40;;;;;;;10.73;7.43;;;16.80;70.70;;;;;;5101242;28;20206;-71
2022/03/14 09:32:07;;;;;;;12.68;7.57;;;17.10;70.30;;;;;;5096335;28;20187;-72
2022/03/14 09:34:37;;;;;;;12.07;6.88;;;16.50;70.70;;;;;;5106521;28;20208;-72
2022/03/14 09:37:03;;;;;;;11.20;7.10;;;16.60;71.50;;;;;;5094995;28;20183;-72
2022/03/14 09:39:30;;;;;;;8.68;6.55;;;16.20;70.40;;;;;;5103563;28;20199;-72
2022/03/14 09:41:57;;;;;;;11.35;6.88;;;16.80;70.60;;;;;;5097176;28;20188;-72
2022/03/14 09:44:28;;;;;;;9.85;7.10;;;17.50;71.60;;;;;;5086070;28;20198;-71
2022/03/14 09:46:58;;;;;;;13.23;7.20;;;16.50;70.10;;;;;;5100044;28;20199;-72
2022/03/14 09:49:26;;;;;;;14.43;7.97;;;16.90;71.00;;;;;;5081090;28;20184;-72
2022/03/14 09:51:54;;;;;;;12.13;7.22;;;16.60;71.40;;;;;;5088981;28;20191;-72
2022/03/14 09:54:21;;;;;;;9.57;6.97;;;17.00;70.20;;;;;;5091131;28;20199;-71
2022/03/14 09:56:48;;;;;;;13.38;7.10;;;16.10;71.50;;;;;;5075691;28;20187;-71
2022/03/14 09:59:14;;;;;;;12.38;7.40;;;16.60;69.90;;;;;;5101542;28;20167;-71
2022/03/14 10:01:41;;;;;;;9.20;7.05;;;16.50;71.40;;;;;;5088595;28;20191;-71
2022/03/14 10:04:08;;;;;;;9.77;6.75;;;16.40;72.40;;;;;;5105018;28;20185;-71
2022/03/14 10:06:36;;;;;;;10.25;7.55;;;16.00;72.50;;;;;;5091863;28;20219;-71
2022/03/14 10:09:04;;;;;;;12.50;7.35;;;16.10;72.00;;;;;;5104123;28;20232;-71
2022/03/14 10:11:31;;;;;;;13.50;7.43;;;14.90;74.10;;;;;;5097289;28;20199;-71
2022/03/14 10:13:57;;;;;;;12.85;6.93;;;15.40;75.30;;;;;;5096714;28;20168;-71
2022/03/14 10:16:25;;;;;;;8.85;7.10;;;16.20;72.00;;;;;;5105622;28;20206;-70
2022/03/14 10:19:01;;;;;;;13.60;7.22;;;17.00;73.00;;;;;;5093290;28;20170;-71
2022/03/14 10:21:42;;;;;;;12.23;6.70;;;17.40;71.40;;;;;;5100840;28;20194;-71
2022/03/14 10:24:10;;;;;;;10.18;7.32;;;17.30;71.00;;;;;;5102840;28;20192;-70
2022/03/14 10:26:40;;;;;;;10.23;7.18;;;17.00;71.50;;;;;;5092026;28;20964;-71
2022/03/14 10:29:08;;;;;;;11.00;6.63;;;16.10;71.00;;;;;;5102384;28;20172;-71
2022/03/14 10:31:42;;;;;;;12.32;7.53;;;15.60;71.20;;;;;;5090199;28;20210;-71
2022/03/14 10:34:18;;;;;;;9.30;7.15;;;15.70;72.50;;;;;;5089754;28;20200;-70
2022/03/14 10:36:49;;;;;;;14.90;7.10;;;15.70;73.30;;;;;;5105322;28;20187;-71
2022/03/14 10:39:27;;;;;;;12.15;7.30;;;15.50;72.50;;;;;;5089205;28;20192;-70
2022/03/14 10:42:07;;;;;;;12.02;7.03;;;15.50;73.10;;;;;;5089774;28;20151;-71
2022/03/14 10:44:38;;;;;;;10.20;6.45;;;16.20;72.00;;;;;;5088237;28;20533;-71
2022/03/14 10:47:07;;;;;;;12.90;7.55;;;16.60;73.60;;;;;;5089070;28;20198;-71
2022/03/14 10:49:35;;;;;;;11.35;6.72;;;16.40;72.60;;;;;;5087544;28;20186;-71
2022/03/14 10:52:03;;;;;;;17.42;7.43;;;16.20;72.80;;;;;;5100343;28;20175;-71
2022/03/14 10:54:30;;;;;;;9.18;7.00;;;16.60;73.00;;;;;;5092164;28;20168;-71
2022/03/14 10:57:06;;;;;;;20.52;6.45;;;16.40;71.90;;;;;;5104677;28;20196;-71
2022/03/14 10:59:37;;;;;;;8.95;6.78;;;16.10;72.30;;;;;;5096857;28;20643;-72
2022/03/14 11:02:09;;;;;;;13.18;6.93;;;15.50;73.80;;;;;;5096238;28;20607;-72
2022/03/14 11:04:50;;;;;;;13.75;7.13;;;15.80;72.70;;;;;;5105876;28;20185;-72
2022/03/14 11:07:18;;;;;;;10.57;6.80;;;16.20;70.30;;;;;;5094747;28;20545;-71
2022/03/14 11:09:50;;;;;;;10.38;7.28;;;15.70;70.30;;;;;;5097331;28;20172;-73
2022/03/14 11:12:18;;;;;;;12.70;7.45;;;16.30;71.20;;;;;;5079765;28;20568;-73
2022/03/14 11:15:01;;;;;;;10.35;6.80;;;15.90;72.10;;;;;;5093025;28;20213;-73
2022/03/14 11:17:29;;;;;;;13.88;7.03;;;15.60;72.00;;;;;;5096682;28;20207;-73
2022/03/14 11:19:57;;;;;;;10.57;7.15;;;15.20;72.40;;;;;;5095855;28;20197;-73
2022/03/14 11:22:25;;;;;;;11.23;7.10;;;14.70;73.20;;;;;;5103382;28;20160;-73
2022/03/14 11:24:54;;;;;;;8.85;6.60;;;15.30;72.10;;;;;;5091834;28;20174;-73
2022/03/14 11:27:22;;;;;;;11.40;7.45;;;15.70;74.20;;;;;;5099624;28;20210;-74
2022/03/14 11:29:51;;;;;;;8.60;6.68;;;16.00;71.50;;;;;;5099203;28;20228;-74
2022/03/14 11:32:18;;;;;;;12.23;7.53;;;16.10;70.40;;;;;;5093049;28;20224;-74
2022/03/14 11:34:46;;;;;;;9.82;6.40;;;15.60;71.90;;;;;;5090588;28;20256;-74
2022/03/14 11:37:13;;;;;;;10.13;6.57;;;15.90;74.80;;;;;;5101862;28;20176;-73
2022/03/14 11:39:40;;;;;;;9.38;6.97;;;16.30;69.50;;;;;;5096913;28;20194;-74
2022/03/14 11:42:07;;;;;;;9.18;6.68;;;16.70;71.80;;;;;;5094555;28;20274;-73
2022/03/14 11:44:34;;;;;;;9.75;6.57;;;17.40;72.90;;;;;;5104993;28;20171;-72
2022/03/14 11:47:01;;;;;;;12.18;7.88;;;18.30;68.60;;;;;;5091769;28;20193;-73
2022/03/14 11:49:29;;;;;;;10.27;7.22;;;18.80;68.50;;;;;;5098813;28;20271;-73
2022/03/14 11:52:19;;;;;;;10.13;6.65;;;18.00;66.80;;;;;;5099319;28;20321;-73
2022/03/14 11:54:57;;;;;;;11.25;7.25;;;17.00;69.10;;;;;;5090960;28;20164;-73
2022/03/14 11:57:34;;;;;;;10.73;7.18;;;16.80;69.40;;;;;;5101743;28;20206;-73
2022/03/14 12:00:22;;;;;;;10.30;7.25;;;17.80;65.70;;;;;;5098490;28;20163;-73
2022/03/14 12:02:53;;;;;;;12.23;7.68;;;17.10;66.70;;;;;;5091221;28;20164;-71
2022/03/14 12:05:31;;;;;;;12.15;7.68;;;17.10;69.10;;;;;;5099575;28;20171;-71
2022/03/14 12:07:57;;;;;;;10.38;7.13;;;17.30;67.80;;;;;;5099391;28;20286;-71
2022/03/14 12:10:30;;;;;;;11.95;7.93;;;18.00;70.90;;;;;;5107120;28;20254;-72
2022/03/14 12:13:00;;;;;;;10.00;6.95;;;18.70;64.70;;;;;;5107090;28;20197;-71
2022/03/14 12:15:38;;;;;;;13.60;7.78;;;17.80;65.00;;;;;;5109077;28;20155;-71
2022/03/14 12:18:28;;;;;;;11.00;7.38;;;17.00;67.90;;;;;;5108279;28;20609;-71
2022/03/14 12:20:59;;;;;;;14.10;8.15;;;16.90;69.20;;;;;;5109058;28;20207;-71
2022/03/14 12:23:28;;;;;;;13.07;8.00;;;16.90;67.70;;;;;;5109158;28;20627;-72
2022/03/14 12:25:55;;;;;;;11.63;7.80;;;16.90;69.80;;;;;;5109151;28;20547;-72
2022/03/14 12:28:36;;;;;;;10.90;7.70;;;16.80;69.50;;;;;;5108855;28;20255;-72
2022/03/14 12:31:13;;;;;;;10.38;6.55;;;16.50;69.70;;;;;;5109005;28;20154;-71
2022/03/14 12:33:47;;;;;;;13.35;8.25;;;16.20;71.50;;;;;;5108942;28;20158;-72
2022/03/14 12:36:22;;;;;;;12.35;8.32;;;15.70;72.10;;;;;;5108949;28;20182;-71
2022/03/14 12:39:06;;;;;;;11.38;7.63;;;14.80;72.80;;;;;;5108854;28;20143;-71
2022/03/14 12:41:33;;;;;;;13.95;9.18;;;13.90;74.80;;;;;;5108679;28;20170;-71
2022/03/14 12:44:00;;;;;;;15.05;8.05;;;13.60;74.00;;;;;;5108822;28;20151;-72